sensor_id;sensor_type;location;lat;lon;timestamp;temperature;humidity
47590;DHT22;33316;52.298;9.056;2022-12-20T00:01:31;7.60;91.00
47590;DHT22;33316;52.298;9.056;2022-12-20T00:04:03;7.60;91.00
47590;DHT22;33316;52.298;9.056;2022-12-20T00:06:30;7.60;91.10
47590;DHT22;33316;52.298;9.056;2022-12-20T00:09:00;7.60;91.00
47590;DHT22;33316;52.298;9.056;2022-12-20T00:11:28;7.60;91.10
47590;DHT22;33316;52.298;9.056;2022-12-20T00:13:56;7.60;91.10
47590;DHT22;33316;52.298;9.056;2022-12-20T00:16:24;7.60;91.10
47590;DHT22;33316;52.298;9.056;2022-12-20T00:18:52;7.60;91.10
47590;DHT22;33316;52.298;9.056;2022-12-20T00:21:21;7.60;91.10
47590;DHT22;33316;52.298;9.056;2022-12-20T00:23:51;7.70;91.20
47590;DHT22;33316;52.298;9.056;2022-12-20T00:26:20;7.70;91.20
47590;DHT22;33316;52.298;9.056;2022-12-20T00:28:47;7.70;91.20
47590;DHT22;33316;52.298;9.056;2022-12-20T00:31:16;7.70;91.30
47590;DHT22;33316;52.298;9.056;2022-12-20T00:33:45;7.70;91.30
47590;DHT22;33316;52.298;9.056;2022-12-20T00:36:13;7.70;91.30
47590;DHT22;33316;52.298;9.056;2022-12-20T00:38:43;7.70;91.30
47590;DHT22;33316;52.298;9.056;2022-12-20T00:41:11;7.70;91.30
47590;DHT22;33316;52.298;9.056;2022-12-20T00:43:39;7.70;91.30
47590;DHT22;33316;52.298;9.056;2022-12-20T00:46:07;7.70;91.40
47590;DHT22;33316;52.298;9.056;2022-12-20T00:48:35;7.70;91.30
47590;DHT22;33316;52.298;9.056;2022-12-20T00:51:04;7.70;91.40
47590;DHT22;33316;52.298;9.056;2022-12-20T00:53:32;7.70;91.40
47590;DHT22;33316;52.298;9.056;2022-12-20T00:56:01;7.80;91.40
47590;DHT22;33316;52.298;9.056;2022-12-20T00:58:28;7.80;91.40
47590;DHT22;33316;52.298;9.056;2022-12-20T01:00:55;7.80;91.50
47590;DHT22;33316;52.298;9.056;2022-12-20T01:03:22;7.80;91.50
47590;DHT22;33316;52.298;9.056;2022-12-20T01:05:50;7.90;91.60
47590;DHT22;33316;52.298;9.056;2022-12-20T01:08:18;7.90;91.60
47590;DHT22;33316;52.298;9.056;2022-12-20T01:10:44;7.90;91.70
47590;DHT22;33316;52.298;9.056;2022-12-20T01:13:13;8.00;91.70
47590;DHT22;33316;52.298;9.056;2022-12-20T01:15:40;8.00;91.70
47590;DHT22;33316;52.298;9.056;2022-12-20T01:18:07;8.10;91.80
47590;DHT22;33316;52.298;9.056;2022-12-20T01:20:33;8.10;91.80
47590;DHT22;33316;52.298;9.056;2022-12-20T01:23:00;8.10;91.80
47590;DHT22;33316;52.298;9.056;2022-12-20T01:25:27;8.10;91.80
47590;DHT22;33316;52.298;9.056;2022-12-20T01:27:54;8.10;91.80
47590;DHT22;33316;52.298;9.056;2022-12-20T01:30:22;8.20;91.80
47590;DHT22;33316;52.298;9.056;2022-12-20T01:32:49;8.20;91.80
47590;DHT22;33316;52.298;9.056;2022-12-20T01:35:16;8.30;92.20
47590;DHT22;33316;52.298;9.056;2022-12-20T01:37:43;8.30;91.80
47590;DHT22;33316;52.298;9.056;2022-12-20T01:40:10;8.30;91.80
47590;DHT22;33316;52.298;9.056;2022-12-20T01:42:37;8.40;91.80
47590;DHT22;33316;52.298;9.056;2022-12-20T01:45:10;8.40;91.80
47590;DHT22;33316;52.298;9.056;2022-12-20T01:47:40;8.40;91.80
47590;DHT22;33316;52.298;9.056;2022-12-20T01:50:08;8.50;91.80
47590;DHT22;33316;52.298;9.056;2022-12-20T01:52:37;8.50;91.80
47590;DHT22;33316;52.298;9.056;2022-12-20T01:55:09;8.50;91.80
47590;DHT22;33316;52.298;9.056;2022-12-20T01:57:41;8.50;91.70
47590;DHT22;33316;52.298;9.056;2022-12-20T02:00:11;8.50;91.70
47590;DHT22;33316;52.298;9.056;2022-12-20T02:02:39;8.60;91.70
47590;DHT22;33316;52.298;9.056;2022-12-20T02:05:08;8.60;91.70
47590;DHT22;33316;52.298;9.056;2022-12-20T02:07:36;8.60;91.70
47590;DHT22;33316;52.298;9.056;2022-12-20T02:10:05;8.60;91.70
47590;DHT22;33316;52.298;9.056;2022-12-20T02:12:37;8.60;91.80
47590;DHT22;33316;52.298;9.056;2022-12-20T02:15:17;8.70;91.80
47590;DHT22;33316;52.298;9.056;2022-12-20T02:17:56;8.70;91.80
47590;DHT22;33316;52.298;9.056;2022-12-20T02:20:53;8.70;91.70
47590;DHT22;33316;52.298;9.056;2022-12-20T02:23:56;8.70;91.80
47590;DHT22;33316;52.298;9.056;2022-12-20T02:26:40;8.70;91.70
47590;DHT22;33316;52.298;9.056;2022-12-20T02:29:21;8.70;91.70
47590;DHT22;33316;52.298;9.056;2022-12-20T02:31:54;8.70;91.60
47590;DHT22;33316;52.298;9.056;2022-12-20T02:34:24;8.80;91.70
47590;DHT22;33316;52.298;9.056;2022-12-20T02:36:52;8.80;91.70
47590;DHT22;33316;52.298;9.056;2022-12-20T02:39:20;8.80;91.60
47590;DHT22;33316;52.298;9.056;2022-12-20T02:41:51;8.80;91.60
47590;DHT22;33316;52.298;9.056;2022-12-20T02:44:19;8.80;91.60
47590;DHT22;33316;52.298;9.056;2022-12-20T02:47:09;8.80;91.60
47590;DHT22;33316;52.298;9.056;2022-12-20T02:49:39;8.80;91.50
47590;DHT22;33316;52.298;9.056;2022-12-20T02:52:08;8.80;91.50
47590;DHT22;33316;52.298;9.056;2022-12-20T02:54:37;8.80;91.50
47590;DHT22;33316;52.298;9.056;2022-12-20T02:57:07;8.80;91.50
47590;DHT22;33316;52.298;9.056;2022-12-20T02:59:40;8.80;91.50
47590;DHT22;33316;52.298;9.056;2022-12-20T03:02:10;8.80;91.40
47590;DHT22;33316;52.298;9.056;2022-12-20T03:04:39;8.80;91.50
47590;DHT22;33316;52.298;9.056;2022-12-20T03:07:09;8.80;91.50
47590;DHT22;33316;52.298;9.056;2022-12-20T03:09:38;8.80;91.50
47590;DHT22;33316;52.298;9.056;2022-12-20T03:12:06;8.80;91.40
47590;DHT22;33316;52.298;9.056;2022-12-20T03:14:34;8.80;91.40
47590;DHT22;33316;52.298;9.056;2022-12-20T03:17:00;8.90;91.50
47590;DHT22;33316;52.298;9.056;2022-12-20T03:19:29;8.90;91.40
47590;DHT22;33316;52.298;9.056;2022-12-20T03:21:56;8.90;91.40
47590;DHT22;33316;52.298;9.056;2022-12-20T03:24:23;8.90;91.40
47590;DHT22;33316;52.298;9.056;2022-12-20T03:26:50;8.90;91.30
47590;DHT22;33316;52.298;9.056;2022-12-20T03:29:17;9.00;91.20
47590;DHT22;33316;52.298;9.056;2022-12-20T03:31:44;8.90;91.10
47590;DHT22;33316;52.298;9.056;2022-12-20T03:34:11;8.90;91.10
47590;DHT22;33316;52.298;9.056;2022-12-20T03:36:39;8.90;91.00
47590;DHT22;33316;52.298;9.056;2022-12-20T03:39:06;8.90;91.00
47590;DHT22;33316;52.298;9.056;2022-12-20T03:41:33;8.90;91.00
47590;DHT22;33316;52.298;9.056;2022-12-20T03:44:00;8.90;91.00
47590;DHT22;33316;52.298;9.056;2022-12-20T03:46:26;8.90;91.00
47590;DHT22;33316;52.298;9.056;2022-12-20T03:48:53;8.90;91.10
47590;DHT22;33316;52.298;9.056;2022-12-20T03:51:20;8.90;91.00
47590;DHT22;33316;52.298;9.056;2022-12-20T03:53:48;8.90;91.00
47590;DHT22;33316;52.298;9.056;2022-12-20T03:56:15;8.90;91.40
47590;DHT22;33316;52.298;9.056;2022-12-20T03:58:43;8.90;91.00
47590;DHT22;33316;52.298;9.056;2022-12-20T04:01:21;8.90;91.00
47590;DHT22;33316;52.298;9.056;2022-12-20T04:03:48;9.00;91.10
47590;DHT22;33316;52.298;9.056;2022-12-20T04:06:16;9.00;91.00
47590;DHT22;33316;52.298;9.056;2022-12-20T04:08:43;9.00;91.00
47590;DHT22;33316;52.298;9.056;2022-12-20T04:11:12;9.00;91.00
47590;DHT22;33316;52.298;9.056;2022-12-20T04:13:41;9.00;90.90
47590;DHT22;33316;52.298;9.056;2022-12-20T04:16:08;9.00;90.90
47590;DHT22;33316;52.298;9.056;2022-12-20T04:18:35;9.00;90.90
47590;DHT22;33316;52.298;9.056;2022-12-20T04:21:03;9.00;90.80
47590;DHT22;33316;52.298;9.056;2022-12-20T04:23:31;9.00;90.80
47590;DHT22;33316;52.298;9.056;2022-12-20T04:25:58;9.00;90.70
47590;DHT22;33316;52.298;9.056;2022-12-20T04:28:27;8.90;90.60
47590;DHT22;33316;52.298;9.056;2022-12-20T04:30:54;8.90;90.50
47590;DHT22;33316;52.298;9.056;2022-12-20T04:33:21;8.90;90.50
47590;DHT22;33316;52.298;9.056;2022-12-20T04:35:48;8.90;90.50
47590;DHT22;33316;52.298;9.056;2022-12-20T04:38:16;8.90;90.50
47590;DHT22;33316;52.298;9.056;2022-12-20T04:40:43;8.90;90.50
47590;DHT22;33316;52.298;9.056;2022-12-20T04:43:10;8.80;90.50
47590;DHT22;33316;52.298;9.056;2022-12-20T04:45:38;8.80;90.50
47590;DHT22;33316;52.298;9.056;2022-12-20T04:48:05;8.80;90.50
47590;DHT22;33316;52.298;9.056;2022-12-20T04:50:32;8.80;90.50
47590;DHT22;33316;52.298;9.056;2022-12-20T04:52:58;8.80;90.90
47590;DHT22;33316;52.298;9.056;2022-12-20T04:55:43;8.80;90.60
47590;DHT22;33316;52.298;9.056;2022-12-20T04:58:10;8.80;90.70
47590;DHT22;33316;52.298;9.056;2022-12-20T05:00:38;8.80;90.70
47590;DHT22;33316;52.298;9.056;2022-12-20T05:03:05;8.80;90.70
47590;DHT22;33316;52.298;9.056;2022-12-20T05:05:32;8.80;90.70
47590;DHT22;33316;52.298;9.056;2022-12-20T05:07:59;8.70;90.70
47590;DHT22;33316;52.298;9.056;2022-12-20T05:10:25;8.70;90.80
47590;DHT22;33316;52.298;9.056;2022-12-20T05:12:52;8.70;90.80
47590;DHT22;33316;52.298;9.056;2022-12-20T05:15:19;8.70;90.80
47590;DHT22;33316;52.298;9.056;2022-12-20T05:17:47;8.60;90.80
47590;DHT22;33316;52.298;9.056;2022-12-20T05:20:14;8.60;90.80
47590;DHT22;33316;52.298;9.056;2022-12-20T05:22:41;8.60;90.70
47590;DHT22;33316;52.298;9.056;2022-12-20T05:25:25;8.60;90.70
47590;DHT22;33316;52.298;9.056;2022-12-20T05:28:10;8.60;90.70
47590;DHT22;33316;52.298;9.056;2022-12-20T05:30:36;8.60;90.70
47590;DHT22;33316;52.298;9.056;2022-12-20T05:33:05;8.60;90.60
47590;DHT22;33316;52.298;9.056;2022-12-20T05:35:31;8.50;90.60
47590;DHT22;33316;52.298;9.056;2022-12-20T05:37:58;8.50;90.60
47590;DHT22;33316;52.298;9.056;2022-12-20T05:40:25;8.50;90.50
47590;DHT22;33316;52.298;9.056;2022-12-20T05:42:53;8.50;90.50
47590;DHT22;33316;52.298;9.056;2022-12-20T05:45:20;8.50;90.50
47590;DHT22;33316;52.298;9.056;2022-12-20T05:47:46;8.50;90.50
47590;DHT22;33316;52.298;9.056;2022-12-20T05:50:15;8.50;90.50
47590;DHT22;33316;52.298;9.056;2022-12-20T05:52:42;8.50;90.50
47590;DHT22;33316;52.298;9.056;2022-12-20T05:55:08;8.50;90.90
47590;DHT22;33316;52.298;9.056;2022-12-20T05:57:35;8.40;90.50
47590;DHT22;33316;52.298;9.056;2022-12-20T06:00:03;8.40;90.50
47590;DHT22;33316;52.298;9.056;2022-12-20T06:02:31;8.40;90.60
47590;DHT22;33316;52.298;9.056;2022-12-20T06:04:57;8.40;90.50
47590;DHT22;33316;52.298;9.056;2022-12-20T06:07:26;8.40;90.60
47590;DHT22;33316;52.298;9.056;2022-12-20T06:09:54;8.40;90.50
47590;DHT22;33316;52.298;9.056;2022-12-20T06:12:21;8.40;90.50
47590;DHT22;33316;52.298;9.056;2022-12-20T06:14:48;8.40;90.60
47590;DHT22;33316;52.298;9.056;2022-12-20T06:17:15;8.40;90.60
47590;DHT22;33316;52.298;9.056;2022-12-20T06:19:43;8.40;90.60
47590;DHT22;33316;52.298;9.056;2022-12-20T06:22:10;8.40;90.60
47590;DHT22;33316;52.298;9.056;2022-12-20T06:24:38;8.40;90.60
47590;DHT22;33316;52.298;9.056;2022-12-20T06:27:05;8.40;90.60
47590;DHT22;33316;52.298;9.056;2022-12-20T06:29:32;8.40;90.70
47590;DHT22;33316;52.298;9.056;2022-12-20T06:31:59;8.40;91.00
47590;DHT22;33316;52.298;9.056;2022-12-20T06:34:26;8.40;90.70
47590;DHT22;33316;52.298;9.056;2022-12-20T06:36:53;8.40;90.70
47590;DHT22;33316;52.298;9.056;2022-12-20T06:39:20;8.40;90.70
47590;DHT22;33316;52.298;9.056;2022-12-20T06:41:48;8.40;90.70
47590;DHT22;33316;52.298;9.056;2022-12-20T06:44:15;8.40;90.70
47590;DHT22;33316;52.298;9.056;2022-12-20T06:46:43;8.40;90.70
47590;DHT22;33316;52.298;9.056;2022-12-20T06:49:10;8.40;90.80
47590;DHT22;33316;52.298;9.056;2022-12-20T06:51:36;8.40;90.80
47590;DHT22;33316;52.298;9.056;2022-12-20T06:54:03;8.40;90.80
47590;DHT22;33316;52.298;9.056;2022-12-20T06:56:30;8.40;90.80
47590;DHT22;33316;52.298;9.056;2022-12-20T06:58:58;8.40;90.90
47590;DHT22;33316;52.298;9.056;2022-12-20T07:01:25;8.40;90.90
47590;DHT22;33316;52.298;9.056;2022-12-20T07:03:52;8.40;90.80
47590;DHT22;33316;52.298;9.056;2022-12-20T07:06:19;8.40;90.90
47590;DHT22;33316;52.298;9.056;2022-12-20T07:08:45;8.40;91.20
47590;DHT22;33316;52.298;9.056;2022-12-20T07:11:12;8.40;91.30
47590;DHT22;33316;52.298;9.056;2022-12-20T07:13:39;8.50;91.00
47590;DHT22;33316;52.298;9.056;2022-12-20T07:16:08;8.50;91.00
47590;DHT22;33316;52.298;9.056;2022-12-20T07:18:34;8.50;91.00
47590;DHT22;33316;52.298;9.056;2022-12-20T07:21:05;8.50;91.00
47590;DHT22;33316;52.298;9.056;2022-12-20T07:23:32;8.50;91.00
47590;DHT22;33316;52.298;9.056;2022-12-20T07:26:00;8.50;91.00
47590;DHT22;33316;52.298;9.056;2022-12-20T07:28:28;8.50;91.00
47590;DHT22;33316;52.298;9.056;2022-12-20T07:31:00;8.50;91.00
47590;DHT22;33316;52.298;9.056;2022-12-20T07:33:28;8.50;91.10
47590;DHT22;33316;52.298;9.056;2022-12-20T07:35:59;8.50;91.10
47590;DHT22;33316;52.298;9.056;2022-12-20T07:38:26;8.50;91.10
47590;DHT22;33316;52.298;9.056;2022-12-20T07:40:53;8.50;91.10
47590;DHT22;33316;52.298;9.056;2022-12-20T07:43:20;8.50;91.10
47590;DHT22;33316;52.298;9.056;2022-12-20T07:45:47;8.50;91.10
47590;DHT22;33316;52.298;9.056;2022-12-20T07:48:14;8.60;91.10
47590;DHT22;33316;52.298;9.056;2022-12-20T07:50:45;8.60;91.20
47590;DHT22;33316;52.298;9.056;2022-12-20T07:53:12;8.60;91.20
47590;DHT22;33316;52.298;9.056;2022-12-20T07:55:39;8.60;91.30
47590;DHT22;33316;52.298;9.056;2022-12-20T07:58:08;8.60;91.10
47590;DHT22;33316;52.298;9.056;2022-12-20T08:00:37;8.60;91.10
47590;DHT22;33316;52.298;9.056;2022-12-20T08:03:07;8.60;91.10
47590;DHT22;33316;52.298;9.056;2022-12-20T08:05:38;8.60;91.10
47590;DHT22;33316;52.298;9.056;2022-12-20T08:08:08;8.60;91.10
47590;DHT22;33316;52.298;9.056;2022-12-20T08:10:36;8.60;91.10
47590;DHT22;33316;52.298;9.056;2022-12-20T08:13:04;8.60;91.10
47590;DHT22;33316;52.298;9.056;2022-12-20T08:15:32;8.60;91.10
47590;DHT22;33316;52.298;9.056;2022-12-20T08:18:00;8.60;91.10
47590;DHT22;33316;52.298;9.056;2022-12-20T08:20:27;8.60;91.00
47590;DHT22;33316;52.298;9.056;2022-12-20T08:22:54;8.70;91.10
47590;DHT22;33316;52.298;9.056;2022-12-20T08:25:22;8.70;91.10
47590;DHT22;33316;52.298;9.056;2022-12-20T08:27:49;8.70;91.00
47590;DHT22;33316;52.298;9.056;2022-12-20T08:30:16;8.70;91.00
47590;DHT22;33316;52.298;9.056;2022-12-20T08:32:43;8.70;91.00
47590;DHT22;33316;52.298;9.056;2022-12-20T08:35:10;8.70;90.90
47590;DHT22;33316;52.298;9.056;2022-12-20T08:37:37;8.80;91.30
47590;DHT22;33316;52.298;9.056;2022-12-20T08:40:05;8.80;90.90
47590;DHT22;33316;52.298;9.056;2022-12-20T08:42:34;8.80;90.90
47590;DHT22;33316;52.298;9.056;2022-12-20T08:45:01;8.80;90.90
47590;DHT22;33316;52.298;9.056;2022-12-20T08:47:28;8.80;90.80
47590;DHT22;33316;52.298;9.056;2022-12-20T08:49:55;8.90;90.80
47590;DHT22;33316;52.298;9.056;2022-12-20T08:52:22;8.90;90.80
47590;DHT22;33316;52.298;9.056;2022-12-20T08:54:49;8.90;90.70
47590;DHT22;33316;52.298;9.056;2022-12-20T08:57:16;8.90;90.70
47590;DHT22;33316;52.298;9.056;2022-12-20T08:59:44;8.90;90.60
47590;DHT22;33316;52.298;9.056;2022-12-20T09:02:11;8.90;90.60
47590;DHT22;33316;52.298;9.056;2022-12-20T09:04:38;8.90;90.50
47590;DHT22;33316;52.298;9.056;2022-12-20T09:07:04;8.90;90.50
47590;DHT22;33316;52.298;9.056;2022-12-20T09:09:31;8.90;90.50
47590;DHT22;33316;52.298;9.056;2022-12-20T09:11:58;8.90;90.40
47590;DHT22;33316;52.298;9.056;2022-12-20T09:14:25;8.90;90.70
47590;DHT22;33316;52.298;9.056;2022-12-20T09:16:53;9.00;90.30
47590;DHT22;33316;52.298;9.056;2022-12-20T09:19:20;9.00;90.30
47590;DHT22;33316;52.298;9.056;2022-12-20T09:21:47;9.00;90.20
47590;DHT22;33316;52.298;9.056;2022-12-20T09:24:13;9.00;90.20
47590;DHT22;33316;52.298;9.056;2022-12-20T09:26:41;9.00;90.20
47590;DHT22;33316;52.298;9.056;2022-12-20T09:29:08;9.00;90.20
47590;DHT22;33316;52.298;9.056;2022-12-20T09:31:35;9.00;90.10
47590;DHT22;33316;52.298;9.056;2022-12-20T09:34:03;9.10;90.20
47590;DHT22;33316;52.298;9.056;2022-12-20T09:36:30;9.10;90.10
47590;DHT22;33316;52.298;9.056;2022-12-20T09:38:57;9.10;90.10
47590;DHT22;33316;52.298;9.056;2022-12-20T09:41:28;9.10;90.10
47590;DHT22;33316;52.298;9.056;2022-12-20T09:43:58;9.10;90.00
47590;DHT22;33316;52.298;9.056;2022-12-20T09:46:26;9.20;90.00
47590;DHT22;33316;52.298;9.056;2022-12-20T09:48:53;9.20;90.00
47590;DHT22;33316;52.298;9.056;2022-12-20T09:51:48;9.20;90.00
47590;DHT22;33316;52.298;9.056;2022-12-20T09:54:25;9.20;90.00
47590;DHT22;33316;52.298;9.056;2022-12-20T09:56:58;9.30;90.00
47590;DHT22;33316;52.298;9.056;2022-12-20T09:59:26;9.30;90.00
47590;DHT22;33316;52.298;9.056;2022-12-20T10:01:53;9.30;89.90
47590;DHT22;33316;52.298;9.056;2022-12-20T10:04:22;9.30;89.80
47590;DHT22;33316;52.298;9.056;2022-12-20T10:07:01;9.40;89.80
47590;DHT22;33316;52.298;9.056;2022-12-20T10:09:41;9.40;89.60
47590;DHT22;33316;52.298;9.056;2022-12-20T10:12:20;9.40;89.40
47590;DHT22;33316;52.298;9.056;2022-12-20T10:15:00;9.50;89.50
47590;DHT22;33316;52.298;9.056;2022-12-20T10:17:38;9.50;89.40
47590;DHT22;33316;52.298;9.056;2022-12-20T10:20:21;9.50;89.40
47590;DHT22;33316;52.298;9.056;2022-12-20T10:22:57;9.50;89.30
47590;DHT22;33316;52.298;9.056;2022-12-20T10:25:29;9.60;89.30
47590;DHT22;33316;52.298;9.056;2022-12-20T10:27:56;9.60;89.30
47590;DHT22;33316;52.298;9.056;2022-12-20T10:30:26;9.60;89.30
47590;DHT22;33316;52.298;9.056;2022-12-20T10:32:55;9.70;90.00
47590;DHT22;33316;52.298;9.056;2022-12-20T10:35:25;9.70;89.10
47590;DHT22;33316;52.298;9.056;2022-12-20T10:38:01;9.70;89.00
47590;DHT22;33316;52.298;9.056;2022-12-20T10:40:30;9.80;89.00
47590;DHT22;33316;52.298;9.056;2022-12-20T10:42:57;9.80;88.90
47590;DHT22;33316;52.298;9.056;2022-12-20T10:45:34;9.80;88.80
47590;DHT22;33316;52.298;9.056;2022-12-20T10:48:04;9.90;88.80
47590;DHT22;33316;52.298;9.056;2022-12-20T10:50:32;9.90;88.70
47590;DHT22;33316;52.298;9.056;2022-12-20T10:53:17;9.90;88.60
47590;DHT22;33316;52.298;9.056;2022-12-20T10:55:45;10.00;88.60
47590;DHT22;33316;52.298;9.056;2022-12-20T10:58:14;10.00;88.40
47590;DHT22;33316;52.298;9.056;2022-12-20T11:00:41;10.00;88.30
47590;DHT22;33316;52.298;9.056;2022-12-20T11:03:17;10.10;88.30
47590;DHT22;33316;52.298;9.056;2022-12-20T11:05:55;10.10;88.20
47590;DHT22;33316;52.298;9.056;2022-12-20T11:08:26;10.10;88.00
47590;DHT22;33316;52.298;9.056;2022-12-20T11:11:15;10.20;88.00
47590;DHT22;33316;52.298;9.056;2022-12-20T11:13:44;10.20;87.60
47590;DHT22;33316;52.298;9.056;2022-12-20T11:16:25;10.20;87.80
47590;DHT22;33316;52.298;9.056;2022-12-20T11:19:14;10.30;87.60
47590;DHT22;33316;52.298;9.056;2022-12-20T11:21:52;10.30;87.40
47590;DHT22;33316;52.298;9.056;2022-12-20T11:24:29;10.30;87.40
47590;DHT22;33316;52.298;9.056;2022-12-20T11:27:15;10.40;87.40
47590;DHT22;33316;52.298;9.056;2022-12-20T11:30:02;10.40;87.10
47590;DHT22;33316;52.298;9.056;2022-12-20T11:32:49;10.40;87.00
47590;DHT22;33316;52.298;9.056;2022-12-20T11:35:25;10.40;87.00
47590;DHT22;33316;52.298;9.056;2022-12-20T11:38:01;10.40;87.00
47590;DHT22;33316;52.298;9.056;2022-12-20T11:40:36;10.40;86.80
47590;DHT22;33316;52.298;9.056;2022-12-20T11:43:17;10.40;86.80
47590;DHT22;33316;52.298;9.056;2022-12-20T11:45:59;10.50;86.70
47590;DHT22;33316;52.298;9.056;2022-12-20T11:48:40;10.40;86.50
47590;DHT22;33316;52.298;9.056;2022-12-20T11:51:17;10.50;86.60
47590;DHT22;33316;52.298;9.056;2022-12-20T11:53:52;10.50;86.60
47590;DHT22;33316;52.298;9.056;2022-12-20T11:56:25;10.50;86.60
47590;DHT22;33316;52.298;9.056;2022-12-20T11:58:56;10.50;86.60
47590;DHT22;33316;52.298;9.056;2022-12-20T12:01:30;10.50;86.50
47590;DHT22;33316;52.298;9.056;2022-12-20T12:04:03;10.60;86.50
47590;DHT22;33316;52.298;9.056;2022-12-20T12:06:34;10.60;86.40
47590;DHT22;33316;52.298;9.056;2022-12-20T12:09:14;10.60;86.30
47590;DHT22;33316;52.298;9.056;2022-12-20T12:11:47;10.60;86.30
47590;DHT22;33316;52.298;9.056;2022-12-20T12:14:21;10.60;86.30
47590;DHT22;33316;52.298;9.056;2022-12-20T12:16:51;10.60;86.30
47590;DHT22;33316;52.298;9.056;2022-12-20T12:19:20;10.60;86.30
47590;DHT22;33316;52.298;9.056;2022-12-20T12:21:54;10.70;86.30
47590;DHT22;33316;52.298;9.056;2022-12-20T12:24:26;10.70;86.80
47590;DHT22;33316;52.298;9.056;2022-12-20T12:26:57;10.70;86.80
47590;DHT22;33316;52.298;9.056;2022-12-20T12:29:24;10.70;86.00
47590;DHT22;33316;52.298;9.056;2022-12-20T12:31:58;10.70;86.00
47590;DHT22;33316;52.298;9.056;2022-12-20T12:34:35;10.70;85.90
47590;DHT22;33316;52.298;9.056;2022-12-20T12:37:35;10.70;85.60
47590;DHT22;33316;52.298;9.056;2022-12-20T12:40:20;10.70;85.50
47590;DHT22;33316;52.298;9.056;2022-12-20T12:45:56;10.70;85.50
47590;DHT22;33316;52.298;9.056;2022-12-20T12:48:28;10.80;85.60
47590;DHT22;33316;52.298;9.056;2022-12-20T12:50:59;10.80;85.60
47590;DHT22;33316;52.298;9.056;2022-12-20T12:53:33;10.80;85.60
47590;DHT22;33316;52.298;9.056;2022-12-20T12:59:21;10.70;85.40
47590;DHT22;33316;52.298;9.056;2022-12-20T13:01:49;10.70;85.40
47590;DHT22;33316;52.298;9.056;2022-12-20T13:04:26;10.70;85.50
47590;DHT22;33316;52.298;9.056;2022-12-20T13:06:57;10.70;85.60
47590;DHT22;33316;52.298;9.056;2022-12-20T13:09:41;10.70;85.70
47590;DHT22;33316;52.298;9.056;2022-12-20T13:15:50;10.70;85.50
47590;DHT22;33316;52.298;9.056;2022-12-20T13:18:25;10.70;85.50
47590;DHT22;33316;52.298;9.056;2022-12-20T13:21:30;10.70;85.40
47590;DHT22;33316;52.298;9.056;2022-12-20T13:27:02;10.70;85.20
47590;DHT22;33316;52.298;9.056;2022-12-20T13:29:33;10.70;86.20
47590;DHT22;33316;52.298;9.056;2022-12-20T13:32:03;10.70;85.40
47590;DHT22;33316;52.298;9.056;2022-12-20T13:34:54;10.70;85.40
47590;DHT22;33316;52.298;9.056;2022-12-20T13:37:27;10.70;85.40
47590;DHT22;33316;52.298;9.056;2022-12-20T13:39:54;10.70;85.30
47590;DHT22;33316;52.298;9.056;2022-12-20T13:42:31;10.70;85.20
47590;DHT22;33316;52.298;9.056;2022-12-20T13:45:03;10.70;85.20
47590;DHT22;33316;52.298;9.056;2022-12-20T13:47:45;10.70;85.20
47590;DHT22;33316;52.298;9.056;2022-12-20T13:50:27;10.70;85.30
47590;DHT22;33316;52.298;9.056;2022-12-20T13:52:55;10.70;85.30
47590;DHT22;33316;52.298;9.056;2022-12-20T13:55:29;10.70;85.30
47590;DHT22;33316;52.298;9.056;2022-12-20T13:57:57;10.70;85.40
47590;DHT22;33316;52.298;9.056;2022-12-20T14:00:29;10.60;85.30
47590;DHT22;33316;52.298;9.056;2022-12-20T14:02:57;10.60;85.20
47590;DHT22;33316;52.298;9.056;2022-12-20T14:05:31;10.60;85.30
47590;DHT22;33316;52.298;9.056;2022-12-20T14:08:00;10.60;85.40
47590;DHT22;33316;52.298;9.056;2022-12-20T14:10:31;10.60;85.50
47590;DHT22;33316;52.298;9.056;2022-12-20T14:12:58;10.60;85.60
47590;DHT22;33316;52.298;9.056;2022-12-20T14:15:28;10.60;85.80
47590;DHT22;33316;52.298;9.056;2022-12-20T14:18:04;10.60;85.80
47590;DHT22;33316;52.298;9.056;2022-12-20T14:20:33;10.60;85.90
47590;DHT22;33316;52.298;9.056;2022-12-20T14:23:03;10.60;85.90
47590;DHT22;33316;52.298;9.056;2022-12-20T14:25:37;10.60;86.00
47590;DHT22;33316;52.298;9.056;2022-12-20T14:28:15;10.60;86.00
47590;DHT22;33316;52.298;9.056;2022-12-20T14:30:44;10.60;86.20
47590;DHT22;33316;52.298;9.056;2022-12-20T14:33:19;10.50;86.10
47590;DHT22;33316;52.298;9.056;2022-12-20T14:35:47;10.50;86.10
47590;DHT22;33316;52.298;9.056;2022-12-20T14:38:20;10.60;86.20
47590;DHT22;33316;52.298;9.056;2022-12-20T14:40:49;10.50;86.00
47590;DHT22;33316;52.298;9.056;2022-12-20T14:43:25;10.50;86.00
47590;DHT22;33316;52.298;9.056;2022-12-20T14:46:19;10.50;86.00
47590;DHT22;33316;52.298;9.056;2022-12-20T14:49:05;10.50;86.00
47590;DHT22;33316;52.298;9.056;2022-12-20T14:51:34;10.50;86.00
47590;DHT22;33316;52.298;9.056;2022-12-20T14:54:01;10.40;86.00
47590;DHT22;33316;52.298;9.056;2022-12-20T14:56:28;10.50;86.10
47590;DHT22;33316;52.298;9.056;2022-12-20T14:59:12;10.50;86.20
47590;DHT22;33316;52.298;9.056;2022-12-20T15:01:39;10.50;86.20
